Latest Coastal Weather Observations for Burnie Port

IDT60701

Issued at 6:15 pm EST Saturday 30 August 2014 (issued every 10 minutes, with the page automatically refreshed every 10 minutes)

About coastal observations | Map of coastal stations | Coastal observations for TAS | Marine services | Other Formats
Station Details ID: 091344 Name: BURNIE NTC AWS Lat: -41.05 Lon: 145.91 Height: 0.0 m
Data from the previous 72 hours. | See also: Recent months for locations in Tasmania
Date/Time
EST
Temp

°C
Wind Pressure Rain
since 9am
mm
Weather Cloud Vis
km
Sea
Height
m
Swell
Dir
 
Speed
knots
Gust
knots
hPa Trend Height
m
Period
s
Dir
30/06:00pm 12.5 ESE 11 13 1023.8 - - - - - - - - -
30/05:30pm 12.6 E 10 12 1023.8 - - - - - - - - -
30/05:00pm 12.6 E 10 12 1024.0 - - - - - - - - -
30/04:30pm 12.8 E 9 11 1024.5 - - - - - - - - -
30/04:00pm 12.6 E 10 12 1024.5 - - - - - - - - -
30/03:30pm 12.8 E 11 13 1024.6 - - - - - - - - -
30/03:00pm 12.7 E 11 13 1024.9 - - - - - - - - -
30/02:30pm 12.6 E 9 11 1025.1 - - - - - - - - -
30/02:00pm 12.6 ESE 9 10 1025.4 - - - - - - - - -
30/01:30pm 12.4 ESE 9 10 1025.7 - - - - - - - - -
30/01:00pm 12.4 E 9 12 1026.1 - - - - - - - - -
30/12:30pm 12.3 ESE 10 11 1026.4 - - - - - - - - -
30/12:00pm 12.1 ESE 11 12 1026.9 - - - - - - - - -
30/11:30am 12.1 ESE 11 13 1027.3 - - - - - - - - -
30/11:00am 12.0 ESE 11 13 1027.5 - - - - - - - - -
30/10:30am 12.0 E 11 13 1027.9 - - - - - - - - -
30/10:00am 12.1 ESE 11 14 1028.1 - - - - - - - - -
30/09:30am 12.1 ESE 11 13 1028.3 - - - - - - - - -
30/09:00am 11.9 ESE 11 13 1028.7 - - - - - - - - -
30/08:30am 11.9 ESE 8 10 1028.9 - - - - - - - - -
30/08:00am 11.0 SSE 5 7 1029.0 - - - - - - - - -
30/07:30am 11.2 SE 7 11 1028.9 - - - - - - - - -
30/07:00am 11.5 SE 6 11 1028.8 - - - - - - - - -
30/06:30am 10.8 S 5 8 1028.7 - - - - - - - - -
30/06:00am 10.7 S 7 10 1028.3 - - - - - - - - -
30/05:30am 10.3 S 8 10 1028.3 - - - - - - - - -
30/05:00am 10.1 S 9 10 1028.3 - - - - - - - - -
30/04:30am 9.7 S 5 8 1028.3 - - - - - - - - -
30/04:00am 9.9 S 9 10 1028.3 - - - - - - - - -
30/03:30am 10.2 S 8 11 1028.4 - - - - - - - - -
30/03:00am 9.8 SSW 5 7 1028.7 - - - - - - - - -
30/02:30am 9.8 SSW 6 7 1028.9 - - - - - - - - -
30/02:00am 9.7 SSW 5 7 1029.2 - - - - - - - - -
30/01:30am 9.8 SSW 5 6 1029.5 - - - - - - - - -
30/01:00am 9.6 SSW 5 6 1029.6 - - - - - - - - -
30/12:30am 9.6 S 4 5 1029.6 - - - - - - - - -
30/12:00am 9.5 SSW 5 5 1029.7 - - - - - - - - -
 
Date/Time
EST
Temp

°C
Wind Pressure Rain
since 9am
mm
Weather Cloud Vis
km
Sea
Height
m
Swell
Dir
 
Speed
knots
Gust
knots
hPa Trend Height
m
Period
s
Dir
29/11:30pm 9.8 SSW 5 5 1029.6 - - - - - - - - -
29/11:00pm 10.2 S 4 5 1029.6 - - - - - - - - -
29/10:30pm 10.5 SSW 4 5 1029.6 - - - - - - - - -
29/10:00pm 10.8 SSW 5 6 1029.8 - - - - - - - - -
29/09:30pm 10.8 S 3 5 1029.7 - - - - - - - - -
29/09:00pm 11.0 SSW 4 5 1029.6 - - - - - - - - -
29/08:30pm 10.8 S 4 6 1029.5 - - - - - - - - -
29/08:00pm 10.9 SSW 5 6 1029.5 - - - - - - - - -
29/07:30pm 11.3 S 4 5 1029.3 - - - - - - - - -
29/07:00pm 11.6 S 3 4 1029.3 - - - - - - - - -
29/06:30pm 12.0 SSW 2 3 1029.2 - - - - - - - - -
29/06:00pm 12.4 S 2 3 1029.0 - - - - - - - - -
29/05:30pm 12.4 S 1 2 1028.9 - - - - - - - - -
29/05:00pm 12.6 E 2 3 1028.8 - - - - - - - - -
29/04:30pm 12.6 ENE 2 3 1028.7 - - - - - - - - -
29/04:00pm 12.6 NE 3 4 1028.5 - - - - - - - - -
29/03:30pm 12.5 NNE 4 5 1028.5 - - - - - - - - -
29/03:00pm 12.5 NNE 5 6 1028.6 - - - - - - - - -
29/02:30pm 12.5 NE 4 6 1028.6 - - - - - - - - -
29/02:00pm 12.4 NE 5 7 1028.9 - - - - - - - - -
29/01:30pm 12.4 ENE 4 7 1029.0 - - - - - - - - -
29/01:00pm 12.3 ENE 4 6 1029.1 - - - - - - - - -
29/12:30pm 12.3 ENE 5 9 1029.2 - - - - - - - - -
29/12:00pm 12.4 ENE 4 6 1029.6 - - - - - - - - -
29/11:30am 12.1 E 5 7 1029.8 - - - - - - - - -
29/11:00am 12.0 E 5 7 1029.7 - - - - - - - - -
29/10:30am 11.8 E 7 9 1029.9 - - - - - - - - -
29/10:00am 12.0 E 4 6 1029.9 - - - - - - - - -
29/09:30am 12.2 SE 2 4 1030.2 - - - - - - - - -
29/09:00am 11.6 S 5 6 1030.1 - - - - - - - - -
29/08:30am 10.9 S 5 6 1029.9 - - - - - - - - -
29/08:00am 10.2 S 4 5 1029.6 - - - - - - - - -
29/07:30am 9.9 SSW 6 7 1029.4 - - - - - - - - -
29/07:00am 9.8 S 4 5 1029.1 - - - - - - - - -
29/06:30am 10.1 SSW 6 8 1028.7 - - - - - - - - -
29/06:00am 10.2 SSW 5 6 1028.4 - - - - - - - - -
29/05:30am 10.8 SSW 6 7 1028.3 - - - - - - - - -
29/05:00am 11.1 ESE 6 8 1028.2 - - - - - - - - -
29/04:30am 11.2 S 6 7 1028.4 - - - - - - - - -
29/04:00am 11.0 S 6 8 1028.2 - - - - - - - - -
29/03:30am 10.9 S 7 9 1028.0 - - - - - - - - -
29/03:00am 10.9 S 6 8 1028.1 - - - - - - - - -
29/02:30am 10.9 S 5 6 1028.3 - - - - - - - - -
29/02:00am 10.8 SSW 5 6 1028.5 - - - - - - - - -
29/01:30am 10.9 S 4 7 1028.6 - - - - - - - - -
29/01:00am 11.1 S 7 8 1028.6 - - - - - - - - -
29/12:30am 11.4 SSW 6 8 1028.7 - - - - - - - - -
29/12:00am 11.4 S 7 8 1028.6 - - - - - - - - -
 
Date/Time
EST
Temp

°C
Wind Pressure Rain
since 9am
mm
Weather Cloud Vis
km
Sea
Height
m
Swell
Dir
 
Speed
knots
Gust
knots
hPa Trend Height
m
Period
s
Dir
28/11:30pm 11.6 S 6 7 1028.7 - - - - - - - - -
28/11:00pm 11.6 S 4 6 1028.7 - - - - - - - - -
28/10:30pm 11.5 S 4 5 1028.6 - - - - - - - - -
28/10:00pm 11.5 S 4 5 1028.8 - - - - - - - - -
28/09:30pm 11.6 S 3 4 1028.8 - - - - - - - - -
28/09:00pm 12.2 SSE 4 5 1028.7 - - - - - - - - -
28/08:30pm 12.0 SSE 3 4 1028.7 - - - - - - - - -
28/08:00pm 12.6 ESE 5 6 1028.6 - - - - - - - - -
28/07:30pm 12.7 E 5 6 1028.3 - - - - - - - - -
28/07:00pm 12.7 E 6 7 1028.4 - - - - - - - - -
28/06:30pm 12.8 E 5 6 1028.2 - - - - - - - - -
28/06:00pm 12.8 E 5 6 1028.2 - - - - - - - - -
28/05:30pm 12.8 E 5 7 1028.0 - - - - - - - - -
28/05:00pm 12.8 E 5 7 1027.8 - - - - - - - - -
28/04:30pm 12.8 E 5 7 1027.7 - - - - - - - - -
28/04:00pm 12.9 E 6 9 1027.6 - - - - - - - - -
28/03:30pm 12.9 E 7 10 1027.6 - - - - - - - - -
28/03:00pm 12.8 E 7 9 1027.7 - - - - - - - - -
28/02:30pm 12.7 E 8 9 1027.8 - - - - - - - - -
28/02:00pm 12.5 E 8 10 1028.0 - - - - - - - - -
28/01:30pm 12.3 E 9 10 1028.3 - - - - - - - - -
28/01:00pm 12.2 ESE 9 10 1028.6 - - - - - - - - -
28/12:30pm 12.4 E 8 10 1028.9 - - - - - - - - -
28/12:00pm 12.1 E 10 11 1029.2 - - - - - - - - -
28/11:30am 12.3 E 11 13 1029.6 - - - - - - - - -
28/11:00am 12.1 ESE 12 14 1029.7 - - - - - - - - -
28/10:30am 12.2 ESE 10 12 1029.8 - - - - - - - - -
28/10:00am 12.2 ESE 11 13 1029.8 - - - - - - - - -
28/09:30am 12.1 ESE 12 13 1029.9 - - - - - - - - -
28/09:00am 12.1 ESE 11 13 1029.8 - - - - - - - - -
28/08:30am 12.1 ESE 10 12 1029.7 - - - - - - - - -
28/08:00am 12.0 ESE 10 11 1029.5 - - - - - - - - -
28/07:30am 11.9 ESE 10 12 1029.3 - - - - - - - - -
28/07:00am 11.9 ESE 9 11 1029.2 - - - - - - - - -
28/06:30am 12.1 ESE 10 12 1029.0 - - - - - - - - -
28/06:00am 12.1 ESE 9 11 1028.9 - - - - - - - - -
28/05:30am 12.2 ESE 10 11 1028.7 - - - - - - - - -
28/05:00am 12.2 ESE 9 11 1028.7 - - - - - - - - -
28/04:30am 12.3 ESE 9 11 1028.7 - - - - - - - - -

Other Formats:

Comma delimited format used in spreadsheet applications
http://www.bom.gov.au/fwo/IDT60701/IDT60701.95963.axf

JavaScript Object Notation format (JSON) in row-major order
http://www.bom.gov.au/fwo/IDT60701/IDT60701.95963.json